sensor_id;sensor_type;location;lat;lon;timestamp;P1;durP1;ratioP1;P2;durP2;ratioP2
14599;SDS011;7386;45.586;12.854;2022-12-20T00:01:06;67.93;;;49.67;;
14599;SDS011;7386;45.586;12.854;2022-12-20T00:03:35;74.97;;;50.70;;
14599;SDS011;7386;45.586;12.854;2022-12-20T00:06:03;71.70;;;50.80;;
14599;SDS011;7386;45.586;12.854;2022-12-20T00:08:32;77.30;;;52.63;;
14599;SDS011;7386;45.586;12.854;2022-12-20T00:11:03;74.30;;;51.20;;
14599;SDS011;7386;45.586;12.854;2022-12-20T00:13:32;75.27;;;51.93;;
14599;SDS011;7386;45.586;12.854;2022-12-20T00:16:04;73.17;;;50.70;;
14599;SDS011;7386;45.586;12.854;2022-12-20T00:18:33;74.63;;;51.70;;
14599;SDS011;7386;45.586;12.854;2022-12-20T00:21:02;81.37;;;52.60;;
14599;SDS011;7386;45.586;12.854;2022-12-20T00:23:31;75.67;;;52.17;;
14599;SDS011;7386;45.586;12.854;2022-12-20T00:26:01;80.37;;;54.10;;
14599;SDS011;7386;45.586;12.854;2022-12-20T00:28:31;81.27;;;55.20;;
14599;SDS011;7386;45.586;12.854;2022-12-20T00:30:59;75.03;;;51.87;;
14599;SDS011;7386;45.586;12.854;2022-12-20T00:33:28;76.77;;;54.10;;
14599;SDS011;7386;45.586;12.854;2022-12-20T00:35:57;82.80;;;52.07;;
14599;SDS011;7386;45.586;12.854;2022-12-20T00:38:25;80.30;;;54.30;;
14599;SDS011;7386;45.586;12.854;2022-12-20T00:41:00;84.17;;;54.20;;
14599;SDS011;7386;45.586;12.854;2022-12-20T00:43:30;76.53;;;53.87;;
14599;SDS011;7386;45.586;12.854;2022-12-20T00:45:59;78.73;;;53.47;;
14599;SDS011;7386;45.586;12.854;2022-12-20T00:48:28;80.07;;;53.87;;
14599;SDS011;7386;45.586;12.854;2022-12-20T00:50:58;76.13;;;51.27;;
14599;SDS011;7386;45.586;12.854;2022-12-20T00:53:27;81.43;;;54.20;;
14599;SDS011;7386;45.586;12.854;2022-12-20T00:55:55;78.87;;;53.97;;
14599;SDS011;7386;45.586;12.854;2022-12-20T00:58:24;77.10;;;51.53;;
14599;SDS011;7386;45.586;12.854;2022-12-20T01:00:54;81.63;;;53.63;;
14599;SDS011;7386;45.586;12.854;2022-12-20T01:03:23;77.17;;;51.43;;
14599;SDS011;7386;45.586;12.854;2022-12-20T01:05:52;77.60;;;52.30;;
14599;SDS011;7386;45.586;12.854;2022-12-20T01:08:21;77.13;;;52.43;;
14599;SDS011;7386;45.586;12.854;2022-12-20T01:10:56;77.80;;;52.43;;
14599;SDS011;7386;45.586;12.854;2022-12-20T01:13:25;80.30;;;53.77;;
14599;SDS011;7386;45.586;12.854;2022-12-20T01:15:55;78.50;;;51.63;;
14599;SDS011;7386;45.586;12.854;2022-12-20T01:18:23;78.57;;;53.63;;
14599;SDS011;7386;45.586;12.854;2022-12-20T01:20:59;80.03;;;52.43;;
14599;SDS011;7386;45.586;12.854;2022-12-20T01:23:27;77.60;;;52.27;;
14599;SDS011;7386;45.586;12.854;2022-12-20T01:25:56;78.77;;;53.43;;
14599;SDS011;7386;45.586;12.854;2022-12-20T01:28:25;80.27;;;53.70;;
14599;SDS011;7386;45.586;12.854;2022-12-20T01:30:56;79.60;;;53.30;;
14599;SDS011;7386;45.586;12.854;2022-12-20T01:33:24;79.93;;;52.73;;
14599;SDS011;7386;45.586;12.854;2022-12-20T01:35:56;73.90;;;48.57;;
14599;SDS011;7386;45.586;12.854;2022-12-20T01:38:25;78.13;;;54.00;;
14599;SDS011;7386;45.586;12.854;2022-12-20T01:40:54;77.77;;;52.23;;
14599;SDS011;7386;45.586;12.854;2022-12-20T01:43:23;73.70;;;50.53;;
14599;SDS011;7386;45.586;12.854;2022-12-20T01:45:52;75.93;;;51.23;;
14599;SDS011;7386;45.586;12.854;2022-12-20T01:48:23;79.17;;;52.60;;
14599;SDS011;7386;45.586;12.854;2022-12-20T01:50:52;80.70;;;52.97;;
14599;SDS011;7386;45.586;12.854;2022-12-20T01:53:21;78.23;;;53.33;;
14599;SDS011;7386;45.586;12.854;2022-12-20T01:55:50;74.37;;;50.93;;
14599;SDS011;7386;45.586;12.854;2022-12-20T01:58:18;70.83;;;51.40;;
14599;SDS011;7386;45.586;12.854;2022-12-20T02:00:47;78.17;;;51.60;;
14599;SDS011;7386;45.586;12.854;2022-12-20T02:03:16;75.20;;;52.40;;
14599;SDS011;7386;45.586;12.854;2022-12-20T02:05:46;81.93;;;52.53;;
14599;SDS011;7386;45.586;12.854;2022-12-20T02:08:15;76.27;;;52.37;;
14599;SDS011;7386;45.586;12.854;2022-12-20T02:10:53;72.53;;;50.73;;
14599;SDS011;7386;45.586;12.854;2022-12-20T02:13:36;70.57;;;50.73;;
14599;SDS011;7386;45.586;12.854;2022-12-20T02:16:10;71.23;;;50.23;;
14599;SDS011;7386;45.586;12.854;2022-12-20T02:18:42;69.90;;;49.47;;
14599;SDS011;7386;45.586;12.854;2022-12-20T02:21:22;71.73;;;48.90;;
14599;SDS011;7386;45.586;12.854;2022-12-20T02:29:58;70.07;;;48.33;;
14599;SDS011;7386;45.586;12.854;2022-12-20T02:32:32;71.40;;;48.93;;
14599;SDS011;7386;45.586;12.854;2022-12-20T02:35:04;69.60;;;47.80;;
14599;SDS011;7386;45.586;12.854;2022-12-20T02:37:33;68.50;;;46.83;;
14599;SDS011;7386;45.586;12.854;2022-12-20T02:40:02;68.77;;;46.93;;
14599;SDS011;7386;45.586;12.854;2022-12-20T02:42:31;66.70;;;47.00;;
14599;SDS011;7386;45.586;12.854;2022-12-20T02:45:03;63.17;;;45.27;;
14599;SDS011;7386;45.586;12.854;2022-12-20T02:47:42;63.50;;;45.00;;
14599;SDS011;7386;45.586;12.854;2022-12-20T02:50:13;63.23;;;43.20;;
14599;SDS011;7386;45.586;12.854;2022-12-20T02:52:43;61.73;;;43.83;;
14599;SDS011;7386;45.586;12.854;2022-12-20T02:55:12;63.60;;;43.83;;
14599;SDS011;7386;45.586;12.854;2022-12-20T02:57:42;60.87;;;42.40;;
14599;SDS011;7386;45.586;12.854;2022-12-20T03:00:14;60.30;;;42.63;;
14599;SDS011;7386;45.586;12.854;2022-12-20T03:02:43;61.27;;;42.47;;
14599;SDS011;7386;45.586;12.854;2022-12-20T03:05:31;55.63;;;41.33;;
14599;SDS011;7386;45.586;12.854;2022-12-20T03:08:01;60.40;;;42.10;;
14599;SDS011;7386;45.586;12.854;2022-12-20T03:10:29;61.30;;;42.73;;
14599;SDS011;7386;45.586;12.854;2022-12-20T03:12:58;58.73;;;40.87;;
14599;SDS011;7386;45.586;12.854;2022-12-20T03:15:28;58.93;;;41.23;;
14599;SDS011;7386;45.586;12.854;2022-12-20T03:17:56;65.33;;;42.60;;
14599;SDS011;7386;45.586;12.854;2022-12-20T03:20:25;61.83;;;42.83;;
14599;SDS011;7386;45.586;12.854;2022-12-20T03:22:53;63.10;;;42.77;;
14599;SDS011;7386;45.586;12.854;2022-12-20T03:25:21;59.80;;;41.97;;
14599;SDS011;7386;45.586;12.854;2022-12-20T03:27:50;57.27;;;41.33;;
14599;SDS011;7386;45.586;12.854;2022-12-20T03:30:18;59.53;;;40.80;;
14599;SDS011;7386;45.586;12.854;2022-12-20T03:32:48;62.93;;;42.20;;
14599;SDS011;7386;45.586;12.854;2022-12-20T03:35:17;56.50;;;40.03;;
14599;SDS011;7386;45.586;12.854;2022-12-20T03:37:45;55.83;;;40.57;;
14599;SDS011;7386;45.586;12.854;2022-12-20T03:40:14;57.10;;;40.80;;
14599;SDS011;7386;45.586;12.854;2022-12-20T03:42:42;56.27;;;40.47;;
14599;SDS011;7386;45.586;12.854;2022-12-20T03:45:11;55.83;;;39.40;;
14599;SDS011;7386;45.586;12.854;2022-12-20T03:47:39;57.87;;;39.53;;
14599;SDS011;7386;45.586;12.854;2022-12-20T03:50:10;53.90;;;38.60;;
14599;SDS011;7386;45.586;12.854;2022-12-20T03:52:39;53.83;;;39.10;;
14599;SDS011;7386;45.586;12.854;2022-12-20T03:55:07;53.73;;;39.00;;
14599;SDS011;7386;45.586;12.854;2022-12-20T03:57:37;55.77;;;38.57;;
14599;SDS011;7386;45.586;12.854;2022-12-20T04:00:07;56.47;;;38.60;;
14599;SDS011;7386;45.586;12.854;2022-12-20T04:02:37;52.00;;;37.60;;
14599;SDS011;7386;45.586;12.854;2022-12-20T04:05:06;54.23;;;37.73;;
14599;SDS011;7386;45.586;12.854;2022-12-20T04:07:36;50.13;;;36.40;;
14599;SDS011;7386;45.586;12.854;2022-12-20T04:10:05;54.50;;;37.87;;
14599;SDS011;7386;45.586;12.854;2022-12-20T04:12:34;53.93;;;37.67;;
14599;SDS011;7386;45.586;12.854;2022-12-20T04:15:03;55.80;;;38.83;;
14599;SDS011;7386;45.586;12.854;2022-12-20T04:17:31;57.40;;;38.20;;
14599;SDS011;7386;45.586;12.854;2022-12-20T04:19:59;54.80;;;37.80;;
14599;SDS011;7386;45.586;12.854;2022-12-20T04:22:46;53.00;;;37.67;;
14599;SDS011;7386;45.586;12.854;2022-12-20T04:25:14;56.33;;;38.83;;
14599;SDS011;7386;45.586;12.854;2022-12-20T04:27:43;57.30;;;38.73;;
14599;SDS011;7386;45.586;12.854;2022-12-20T04:30:12;56.73;;;39.37;;
14599;SDS011;7386;45.586;12.854;2022-12-20T04:32:41;56.50;;;38.83;;
14599;SDS011;7386;45.586;12.854;2022-12-20T04:35:09;54.33;;;38.40;;
14599;SDS011;7386;45.586;12.854;2022-12-20T04:37:37;58.97;;;40.87;;
14599;SDS011;7386;45.586;12.854;2022-12-20T04:40:08;56.30;;;39.60;;
14599;SDS011;7386;45.586;12.854;2022-12-20T04:42:37;56.73;;;39.43;;
14599;SDS011;7386;45.586;12.854;2022-12-20T04:45:05;57.30;;;40.60;;
14599;SDS011;7386;45.586;12.854;2022-12-20T04:47:34;56.93;;;39.83;;
14599;SDS011;7386;45.586;12.854;2022-12-20T04:50:02;58.93;;;40.00;;
14599;SDS011;7386;45.586;12.854;2022-12-20T04:52:31;60.90;;;42.10;;
14599;SDS011;7386;45.586;12.854;2022-12-20T04:55:18;58.80;;;41.33;;
14599;SDS011;7386;45.586;12.854;2022-12-20T04:57:47;58.23;;;39.73;;
14599;SDS011;7386;45.586;12.854;2022-12-20T05:00:15;57.93;;;41.67;;
14599;SDS011;7386;45.586;12.854;2022-12-20T05:02:44;58.47;;;40.17;;
14599;SDS011;7386;45.586;12.854;2022-12-20T05:05:13;56.67;;;39.27;;
14599;SDS011;7386;45.586;12.854;2022-12-20T05:07:42;54.60;;;39.70;;
14599;SDS011;7386;45.586;12.854;2022-12-20T05:10:11;57.13;;;39.40;;
14599;SDS011;7386;45.586;12.854;2022-12-20T05:12:40;53.90;;;37.97;;
14599;SDS011;7386;45.586;12.854;2022-12-20T05:15:10;56.77;;;40.23;;
14599;SDS011;7386;45.586;12.854;2022-12-20T05:17:38;62.23;;;40.60;;
14599;SDS011;7386;45.586;12.854;2022-12-20T05:20:07;53.83;;;39.20;;
14599;SDS011;7386;45.586;12.854;2022-12-20T05:22:35;57.40;;;41.23;;
14599;SDS011;7386;45.586;12.854;2022-12-20T05:25:21;54.60;;;39.37;;
14599;SDS011;7386;45.586;12.854;2022-12-20T05:28:09;56.10;;;39.40;;
14599;SDS011;7386;45.586;12.854;2022-12-20T05:30:37;52.10;;;37.77;;
14599;SDS011;7386;45.586;12.854;2022-12-20T05:33:05;57.30;;;39.07;;
14599;SDS011;7386;45.586;12.854;2022-12-20T05:35:34;53.27;;;38.37;;
14599;SDS011;7386;45.586;12.854;2022-12-20T05:38:02;55.93;;;38.73;;
14599;SDS011;7386;45.586;12.854;2022-12-20T05:40:31;54.10;;;38.47;;
14599;SDS011;7386;45.586;12.854;2022-12-20T05:43:00;57.23;;;39.77;;
14599;SDS011;7386;45.586;12.854;2022-12-20T05:45:30;53.57;;;38.87;;
14599;SDS011;7386;45.586;12.854;2022-12-20T05:47:59;54.57;;;37.97;;
14599;SDS011;7386;45.586;12.854;2022-12-20T05:50:28;50.37;;;36.20;;
14599;SDS011;7386;45.586;12.854;2022-12-20T05:52:57;50.77;;;36.20;;
14599;SDS011;7386;45.586;12.854;2022-12-20T05:55:31;55.87;;;38.70;;
14599;SDS011;7386;45.586;12.854;2022-12-20T05:57:59;51.97;;;37.00;;
14599;SDS011;7386;45.586;12.854;2022-12-20T06:00:28;48.10;;;35.10;;
14599;SDS011;7386;45.586;12.854;2022-12-20T06:02:57;47.80;;;33.93;;
14599;SDS011;7386;45.586;12.854;2022-12-20T06:05:26;49.00;;;35.93;;
14599;SDS011;7386;45.586;12.854;2022-12-20T06:07:55;50.37;;;35.17;;
14599;SDS011;7386;45.586;12.854;2022-12-20T06:10:23;49.83;;;35.73;;
14599;SDS011;7386;45.586;12.854;2022-12-20T06:12:52;48.17;;;33.17;;
14599;SDS011;7386;45.586;12.854;2022-12-20T06:15:20;47.10;;;34.10;;
14599;SDS011;7386;45.586;12.854;2022-12-20T06:17:49;49.83;;;34.63;;
14599;SDS011;7386;45.586;12.854;2022-12-20T06:20:18;49.57;;;35.30;;
14599;SDS011;7386;45.586;12.854;2022-12-20T06:22:47;50.80;;;34.43;;
14599;SDS011;7386;45.586;12.854;2022-12-20T06:25:15;49.70;;;34.80;;
14599;SDS011;7386;45.586;12.854;2022-12-20T06:27:44;47.77;;;34.37;;
14599;SDS011;7386;45.586;12.854;2022-12-20T06:30:12;47.97;;;34.53;;
14599;SDS011;7386;45.586;12.854;2022-12-20T06:32:41;44.10;;;30.63;;
14599;SDS011;7386;45.586;12.854;2022-12-20T06:35:09;43.33;;;30.23;;
14599;SDS011;7386;45.586;12.854;2022-12-20T06:37:40;46.87;;;29.57;;
14599;SDS011;7386;45.586;12.854;2022-12-20T06:40:09;40.83;;;29.00;;
14599;SDS011;7386;45.586;12.854;2022-12-20T06:42:38;36.50;;;27.17;;
14599;SDS011;7386;45.586;12.854;2022-12-20T06:45:07;39.43;;;29.67;;
14599;SDS011;7386;45.586;12.854;2022-12-20T06:47:35;40.60;;;29.90;;
14599;SDS011;7386;45.586;12.854;2022-12-20T06:50:05;40.57;;;29.70;;
14599;SDS011;7386;45.586;12.854;2022-12-20T06:52:33;37.43;;;28.23;;
14599;SDS011;7386;45.586;12.854;2022-12-20T06:55:03;41.27;;;28.80;;
14599;SDS011;7386;45.586;12.854;2022-12-20T06:57:32;40.77;;;29.43;;
14599;SDS011;7386;45.586;12.854;2022-12-20T07:00:00;37.13;;;27.90;;
14599;SDS011;7386;45.586;12.854;2022-12-20T07:02:28;37.97;;;28.57;;
14599;SDS011;7386;45.586;12.854;2022-12-20T07:04:57;36.77;;;27.83;;
14599;SDS011;7386;45.586;12.854;2022-12-20T07:07:25;35.60;;;26.43;;
14599;SDS011;7386;45.586;12.854;2022-12-20T07:09:53;39.83;;;28.93;;
14599;SDS011;7386;45.586;12.854;2022-12-20T07:12:23;40.23;;;28.37;;
14599;SDS011;7386;45.586;12.854;2022-12-20T07:14:52;39.80;;;28.87;;
14599;SDS011;7386;45.586;12.854;2022-12-20T07:17:20;40.83;;;29.20;;
14599;SDS011;7386;45.586;12.854;2022-12-20T07:19:51;38.40;;;28.20;;
14599;SDS011;7386;45.586;12.854;2022-12-20T07:22:19;41.43;;;29.23;;
14599;SDS011;7386;45.586;12.854;2022-12-20T07:24:48;41.57;;;30.03;;
14599;SDS011;7386;45.586;12.854;2022-12-20T07:27:16;40.87;;;28.80;;
14599;SDS011;7386;45.586;12.854;2022-12-20T07:29:46;41.20;;;29.37;;
14599;SDS011;7386;45.586;12.854;2022-12-20T07:32:14;41.47;;;27.13;;
14599;SDS011;7386;45.586;12.854;2022-12-20T07:34:43;38.63;;;27.63;;
14599;SDS011;7386;45.586;12.854;2022-12-20T07:37:11;38.00;;;27.43;;
14599;SDS011;7386;45.586;12.854;2022-12-20T07:39:40;38.97;;;27.30;;
14599;SDS011;7386;45.586;12.854;2022-12-20T07:42:09;38.57;;;27.80;;
14599;SDS011;7386;45.586;12.854;2022-12-20T07:44:39;40.50;;;27.63;;
14599;SDS011;7386;45.586;12.854;2022-12-20T07:47:09;35.93;;;25.80;;
14599;SDS011;7386;45.586;12.854;2022-12-20T07:49:38;39.37;;;26.10;;
14599;SDS011;7386;45.586;12.854;2022-12-20T07:52:06;39.37;;;25.87;;
14599;SDS011;7386;45.586;12.854;2022-12-20T07:54:36;36.63;;;26.07;;
14599;SDS011;7386;45.586;12.854;2022-12-20T07:57:08;37.10;;;25.23;;
14599;SDS011;7386;45.586;12.854;2022-12-20T07:59:39;32.83;;;25.20;;
14599;SDS011;7386;45.586;12.854;2022-12-20T08:02:11;36.97;;;26.70;;
14599;SDS011;7386;45.586;12.854;2022-12-20T08:04:41;39.13;;;26.67;;
14599;SDS011;7386;45.586;12.854;2022-12-20T08:07:09;36.07;;;26.13;;
14599;SDS011;7386;45.586;12.854;2022-12-20T08:09:39;36.17;;;25.40;;
14599;SDS011;7386;45.586;12.854;2022-12-20T08:12:09;39.17;;;26.63;;
14599;SDS011;7386;45.586;12.854;2022-12-20T08:14:38;42.07;;;26.50;;
14599;SDS011;7386;45.586;12.854;2022-12-20T08:17:06;38.03;;;26.40;;
14599;SDS011;7386;45.586;12.854;2022-12-20T08:19:37;43.43;;;26.60;;
14599;SDS011;7386;45.586;12.854;2022-12-20T08:22:06;42.80;;;26.97;;
14599;SDS011;7386;45.586;12.854;2022-12-20T08:24:34;37.67;;;26.73;;
14599;SDS011;7386;45.586;12.854;2022-12-20T08:27:03;38.33;;;26.33;;
14599;SDS011;7386;45.586;12.854;2022-12-20T08:29:31;38.13;;;27.23;;
14599;SDS011;7386;45.586;12.854;2022-12-20T08:32:00;35.57;;;22.67;;
14599;SDS011;7386;45.586;12.854;2022-12-20T08:34:28;34.67;;;25.20;;
14599;SDS011;7386;45.586;12.854;2022-12-20T08:36:58;36.27;;;25.50;;
14599;SDS011;7386;45.586;12.854;2022-12-20T08:39:26;39.23;;;24.97;;
14599;SDS011;7386;45.586;12.854;2022-12-20T08:41:55;40.67;;;26.10;;
14599;SDS011;7386;45.586;12.854;2022-12-20T08:44:23;39.67;;;25.60;;
14599;SDS011;7386;45.586;12.854;2022-12-20T08:46:52;38.27;;;25.87;;
14599;SDS011;7386;45.586;12.854;2022-12-20T08:49:20;37.10;;;25.33;;
14599;SDS011;7386;45.586;12.854;2022-12-20T08:51:49;36.53;;;25.00;;
14599;SDS011;7386;45.586;12.854;2022-12-20T08:54:19;45.10;;;26.20;;
14599;SDS011;7386;45.586;12.854;2022-12-20T08:56:47;38.60;;;26.20;;
14599;SDS011;7386;45.586;12.854;2022-12-20T08:59:16;39.60;;;25.57;;
14599;SDS011;7386;45.586;12.854;2022-12-20T09:01:44;39.80;;;27.20;;
14599;SDS011;7386;45.586;12.854;2022-12-20T09:04:13;35.10;;;25.30;;
14599;SDS011;7386;45.586;12.854;2022-12-20T09:06:41;32.47;;;23.63;;
14599;SDS011;7386;45.586;12.854;2022-12-20T09:09:10;35.63;;;24.83;;
14599;SDS011;7386;45.586;12.854;2022-12-20T09:11:40;39.07;;;26.33;;
14599;SDS011;7386;45.586;12.854;2022-12-20T09:14:08;36.10;;;25.47;;
14599;SDS011;7386;45.586;12.854;2022-12-20T09:16:37;39.03;;;27.37;;
14599;SDS011;7386;45.586;12.854;2022-12-20T09:19:05;38.07;;;25.80;;
14599;SDS011;7386;45.586;12.854;2022-12-20T09:21:33;40.67;;;26.07;;
14599;SDS011;7386;45.586;12.854;2022-12-20T09:24:02;35.80;;;25.17;;
14599;SDS011;7386;45.586;12.854;2022-12-20T09:26:31;36.50;;;26.73;;
14599;SDS011;7386;45.586;12.854;2022-12-20T09:29:02;38.63;;;26.50;;
14599;SDS011;7386;45.586;12.854;2022-12-20T09:31:31;38.73;;;25.70;;
14599;SDS011;7386;45.586;12.854;2022-12-20T09:34:00;35.87;;;25.63;;
14599;SDS011;7386;45.586;12.854;2022-12-20T09:36:28;37.47;;;24.70;;
14599;SDS011;7386;45.586;12.854;2022-12-20T09:38:57;36.87;;;26.63;;
14599;SDS011;7386;45.586;12.854;2022-12-20T09:41:27;39.97;;;25.50;;
14599;SDS011;7386;45.586;12.854;2022-12-20T09:43:57;39.67;;;25.63;;
14599;SDS011;7386;45.586;12.854;2022-12-20T09:46:27;34.63;;;25.77;;
14599;SDS011;7386;45.586;12.854;2022-12-20T09:48:55;35.60;;;25.53;;
14599;SDS011;7386;45.586;12.854;2022-12-20T09:51:28;37.37;;;24.47;;
14599;SDS011;7386;45.586;12.854;2022-12-20T09:54:04;34.20;;;24.20;;
14599;SDS011;7386;45.586;12.854;2022-12-20T09:56:35;37.27;;;25.50;;
14599;SDS011;7386;45.586;12.854;2022-12-20T09:59:05;34.23;;;25.77;;
14599;SDS011;7386;45.586;12.854;2022-12-20T10:01:35;35.67;;;25.63;;
14599;SDS011;7386;45.586;12.854;2022-12-20T10:04:06;34.67;;;26.50;;
14599;SDS011;7386;45.586;12.854;2022-12-20T10:06:41;34.70;;;24.37;;
14599;SDS011;7386;45.586;12.854;2022-12-20T10:09:12;32.10;;;23.47;;
14599;SDS011;7386;45.586;12.854;2022-12-20T10:11:48;37.27;;;26.70;;
14599;SDS011;7386;45.586;12.854;2022-12-20T10:14:26;37.00;;;26.43;;
14599;SDS011;7386;45.586;12.854;2022-12-20T10:16:59;33.77;;;24.57;;
14599;SDS011;7386;45.586;12.854;2022-12-20T10:19:34;37.57;;;26.57;;
14599;SDS011;7386;45.586;12.854;2022-12-20T10:22:05;36.07;;;26.33;;
14599;SDS011;7386;45.586;12.854;2022-12-20T10:24:36;37.83;;;26.63;;
14599;SDS011;7386;45.586;12.854;2022-12-20T10:27:08;37.67;;;26.53;;
14599;SDS011;7386;45.586;12.854;2022-12-20T10:29:38;36.60;;;26.60;;
14599;SDS011;7386;45.586;12.854;2022-12-20T10:32:11;36.80;;;26.70;;
14599;SDS011;7386;45.586;12.854;2022-12-20T10:34:42;47.17;;;27.70;;
14599;SDS011;7386;45.586;12.854;2022-12-20T10:37:14;37.63;;;26.63;;
14599;SDS011;7386;45.586;12.854;2022-12-20T10:39:43;41.20;;;29.67;;
14599;SDS011;7386;45.586;12.854;2022-12-20T10:42:29;41.43;;;26.80;;
14599;SDS011;7386;45.586;12.854;2022-12-20T10:45:00;40.53;;;27.43;;
14599;SDS011;7386;45.586;12.854;2022-12-20T10:47:36;40.27;;;27.37;;
14599;SDS011;7386;45.586;12.854;2022-12-20T10:50:12;40.73;;;27.60;;
14599;SDS011;7386;45.586;12.854;2022-12-20T10:52:41;40.77;;;26.87;;
14599;SDS011;7386;45.586;12.854;2022-12-20T10:55:31;38.80;;;27.13;;
14599;SDS011;7386;45.586;12.854;2022-12-20T10:58:04;42.33;;;28.60;;
14599;SDS011;7386;45.586;12.854;2022-12-20T11:00:33;41.40;;;28.00;;
14599;SDS011;7386;45.586;12.854;2022-12-20T11:03:06;37.97;;;28.00;;
14599;SDS011;7386;45.586;12.854;2022-12-20T11:05:38;35.70;;;27.50;;
14599;SDS011;7386;45.586;12.854;2022-12-20T11:08:11;41.57;;;28.63;;
14599;SDS011;7386;45.586;12.854;2022-12-20T11:11:09;39.60;;;27.70;;
14599;SDS011;7386;45.586;12.854;2022-12-20T11:13:38;40.77;;;27.47;;
14599;SDS011;7386;45.586;12.854;2022-12-20T11:16:20;39.17;;;27.00;;
14599;SDS011;7386;45.586;12.854;2022-12-20T11:18:53;39.87;;;27.03;;
14599;SDS011;7386;45.586;12.854;2022-12-20T11:21:25;38.17;;;26.83;;
14599;SDS011;7386;45.586;12.854;2022-12-20T11:24:01;45.40;;;28.87;;
14599;SDS011;7386;45.586;12.854;2022-12-20T11:26:37;40.53;;;27.37;;
14599;SDS011;7386;45.586;12.854;2022-12-20T11:29:13;42.37;;;28.93;;
14599;SDS011;7386;45.586;12.854;2022-12-20T11:31:47;38.63;;;27.23;;
14599;SDS011;7386;45.586;12.854;2022-12-20T11:34:24;40.37;;;28.53;;
14599;SDS011;7386;45.586;12.854;2022-12-20T11:37:01;39.13;;;27.33;;
14599;SDS011;7386;45.586;12.854;2022-12-20T11:39:33;37.47;;;27.43;;
14599;SDS011;7386;45.586;12.854;2022-12-20T11:42:08;38.00;;;27.03;;
14599;SDS011;7386;45.586;12.854;2022-12-20T11:44:45;38.97;;;27.27;;
14599;SDS011;7386;45.586;12.854;2022-12-20T11:47:45;40.53;;;27.50;;
14599;SDS011;7386;45.586;12.854;2022-12-20T11:50:34;37.63;;;27.80;;
14599;SDS011;7386;45.586;12.854;2022-12-20T11:53:06;37.20;;;27.40;;
14599;SDS011;7386;45.586;12.854;2022-12-20T11:55:36;38.10;;;27.10;;
14599;SDS011;7386;45.586;12.854;2022-12-20T11:58:10;43.03;;;27.43;;
14599;SDS011;7386;45.586;12.854;2022-12-20T12:00:46;36.17;;;26.93;;
14599;SDS011;7386;45.586;12.854;2022-12-20T12:03:20;41.50;;;28.03;;
14599;SDS011;7386;45.586;12.854;2022-12-20T12:05:51;39.30;;;25.60;;
14599;SDS011;7386;45.586;12.854;2022-12-20T12:08:22;33.83;;;23.50;;
14599;SDS011;7386;45.586;12.854;2022-12-20T12:10:53;38.30;;;27.00;;
14599;SDS011;7386;45.586;12.854;2022-12-20T12:13:24;42.30;;;29.33;;
14599;SDS011;7386;45.586;12.854;2022-12-20T12:15:56;42.50;;;28.53;;
14599;SDS011;7386;45.586;12.854;2022-12-20T12:18:26;40.10;;;28.70;;
14599;SDS011;7386;45.586;12.854;2022-12-20T12:20:58;43.17;;;30.10;;
14599;SDS011;7386;45.586;12.854;2022-12-20T12:23:36;41.27;;;28.57;;
14599;SDS011;7386;45.586;12.854;2022-12-20T12:26:09;44.30;;;29.17;;
14599;SDS011;7386;45.586;12.854;2022-12-20T12:28:39;40.87;;;27.90;;
14599;SDS011;7386;45.586;12.854;2022-12-20T12:31:08;39.63;;;28.10;;
14599;SDS011;7386;45.586;12.854;2022-12-20T12:33:40;38.67;;;27.20;;
14599;SDS011;7386;45.586;12.854;2022-12-20T12:36:25;38.73;;;27.87;;
14599;SDS011;7386;45.586;12.854;2022-12-20T12:39:02;39.63;;;27.90;;
14599;SDS011;7386;45.586;12.854;2022-12-20T12:41:47;44.33;;;28.53;;
14599;SDS011;7386;45.586;12.854;2022-12-20T12:44:35;39.20;;;28.50;;
14599;SDS011;7386;45.586;12.854;2022-12-20T12:47:09;39.93;;;26.73;;
14599;SDS011;7386;45.586;12.854;2022-12-20T12:49:38;41.20;;;28.30;;
14599;SDS011;7386;45.586;12.854;2022-12-20T12:52:22;38.13;;;27.67;;
14599;SDS011;7386;45.586;12.854;2022-12-20T12:55:00;39.73;;;27.03;;
14599;SDS011;7386;45.586;12.854;2022-12-20T12:57:29;39.50;;;28.33;;
14599;SDS011;7386;45.586;12.854;2022-12-20T13:03:04;37.97;;;26.67;;
14599;SDS011;7386;45.586;12.854;2022-12-20T13:05:33;38.90;;;28.03;;
14599;SDS011;7386;45.586;12.854;2022-12-20T13:08:07;40.73;;;27.93;;
14599;SDS011;7386;45.586;12.854;2022-12-20T13:11:00;38.83;;;28.17;;
14599;SDS011;7386;45.586;12.854;2022-12-20T13:13:29;42.47;;;27.00;;
14599;SDS011;7386;45.586;12.854;2022-12-20T13:16:05;35.93;;;24.97;;
14599;SDS011;7386;45.586;12.854;2022-12-20T13:18:36;36.23;;;25.87;;
14599;SDS011;7386;45.586;12.854;2022-12-20T13:21:23;39.80;;;28.93;;
14599;SDS011;7386;45.586;12.854;2022-12-20T13:26:47;41.10;;;28.00;;
14599;SDS011;7386;45.586;12.854;2022-12-20T13:29:21;40.17;;;27.27;;
14599;SDS011;7386;45.586;12.854;2022-12-20T13:31:50;37.73;;;27.63;;
14599;SDS011;7386;45.586;12.854;2022-12-20T13:37:51;40.60;;;26.63;;
14599;SDS011;7386;45.586;12.854;2022-12-20T13:40:20;36.53;;;26.33;;
14599;SDS011;7386;45.586;12.854;2022-12-20T13:42:52;37.30;;;26.33;;
14599;SDS011;7386;45.586;12.854;2022-12-20T13:45:21;39.53;;;29.03;;
14599;SDS011;7386;45.586;12.854;2022-12-20T13:47:51;42.17;;;30.67;;
14599;SDS011;7386;45.586;12.854;2022-12-20T13:50:29;44.00;;;30.97;;
14599;SDS011;7386;45.586;12.854;2022-12-20T13:52:58;42.97;;;30.17;;
14599;SDS011;7386;45.586;12.854;2022-12-20T13:55:31;45.73;;;31.30;;
14599;SDS011;7386;45.586;12.854;2022-12-20T13:58:09;49.43;;;33.20;;
14599;SDS011;7386;45.586;12.854;2022-12-20T14:00:39;44.40;;;32.00;;
14599;SDS011;7386;45.586;12.854;2022-12-20T14:03:13;46.33;;;33.43;;
14599;SDS011;7386;45.586;12.854;2022-12-20T14:05:45;37.87;;;28.03;;
14599;SDS011;7386;45.586;12.854;2022-12-20T14:08:14;47.63;;;32.73;;
14599;SDS011;7386;45.586;12.854;2022-12-20T14:10:44;52.53;;;34.30;;
14599;SDS011;7386;45.586;12.854;2022-12-20T14:13:18;47.83;;;34.60;;
14599;SDS011;7386;45.586;12.854;2022-12-20T14:15:47;47.73;;;34.30;;
14599;SDS011;7386;45.586;12.854;2022-12-20T14:18:16;49.77;;;34.53;;
14599;SDS011;7386;45.586;12.854;2022-12-20T14:20:45;43.63;;;32.77;;
14599;SDS011;7386;45.586;12.854;2022-12-20T14:23:15;50.73;;;35.90;;
14599;SDS011;7386;45.586;12.854;2022-12-20T14:25:45;55.23;;;36.20;;
14599;SDS011;7386;45.586;12.854;2022-12-20T14:28:21;46.67;;;34.43;;
14599;SDS011;7386;45.586;12.854;2022-12-20T14:30:53;42.00;;;29.87;;
14599;SDS011;7386;45.586;12.854;2022-12-20T14:33:28;51.17;;;37.87;;
14599;SDS011;7386;45.586;12.854;2022-12-20T14:35:57;56.90;;;37.73;;
14599;SDS011;7386;45.586;12.854;2022-12-20T14:38:28;52.80;;;38.53;;
14599;SDS011;7386;45.586;12.854;2022-12-20T14:40:56;54.43;;;37.10;;
14599;SDS011;7386;45.586;12.854;2022-12-20T14:43:27;55.60;;;38.00;;
14599;SDS011;7386;45.586;12.854;2022-12-20T14:49:04;39.73;;;29.57;;
14599;SDS011;7386;45.586;12.854;2022-12-20T14:51:35;48.93;;;34.93;;
14599;SDS011;7386;45.586;12.854;2022-12-20T14:54:03;50.53;;;35.93;;
14599;SDS011;7386;45.586;12.854;2022-12-20T14:56:32;48.97;;;36.03;;
14599;SDS011;7386;45.586;12.854;2022-12-20T14:59:04;50.03;;;36.97;;
14599;SDS011;7386;45.586;12.854;2022-12-20T15:01:33;48.63;;;35.93;;